createdAt,value
2023-01-17T00:00:29.964Z,11.20
2023-01-17T00:03:02.429Z,11.90
2023-01-17T00:05:51.147Z,11.10
2023-01-17T00:08:40.017Z,11.60
2023-01-17T00:11:12.333Z,11.60
2023-01-17T00:13:43.664Z,10.30
2023-01-17T00:16:15.568Z,11.90
2023-01-17T00:19:07.940Z,11.70
2023-01-17T00:21:56.712Z,13.50
2023-01-17T00:24:45.855Z,12.50
2023-01-17T00:27:15.971Z,12.20
2023-01-17T00:29:46.104Z,11.90
2023-01-17T00:32:16.239Z,11.30
2023-01-17T00:34:46.757Z,12.70
2023-01-17T00:37:17.062Z,12.80
2023-01-17T00:39:47.626Z,12.80
2023-01-17T00:42:17.947Z,11.90
2023-01-17T00:45:06.730Z,11.90
2023-01-17T00:47:56.974Z,12.10
2023-01-17T00:50:49.199Z,11.60
2023-01-17T00:53:38.557Z,11.60
2023-01-17T00:56:28.235Z,12.30
2023-01-17T00:59:17.145Z,12.70
2023-01-17T01:02:06.090Z,11.60
2023-01-17T01:04:55.790Z,12.10
2023-01-17T01:07:44.438Z,12.50
2023-01-17T01:10:33.809Z,12.10
2023-01-17T01:13:22.829Z,11.70
2023-01-17T01:16:11.598Z,13.30
2023-01-17T01:19:00.343Z,11.80
2023-01-17T01:21:49.797Z,12.20
2023-01-17T01:24:39.223Z,12.70
2023-01-17T01:27:28.481Z,12.20
2023-01-17T01:30:17.627Z,12.00
2023-01-17T01:33:06.194Z,12.80
2023-01-17T01:35:39.822Z,12.60
2023-01-17T01:38:12.319Z,12.20
2023-01-17T01:40:52.963Z,11.10
2023-01-17T01:43:43.129Z,12.20
2023-01-17T01:46:18.541Z,12.00
2023-01-17T01:48:55.504Z,12.20
2023-01-17T01:51:31.552Z,12.00
2023-01-17T01:54:08.943Z,11.70
2023-01-17T01:56:42.559Z,11.60
2023-01-17T01:59:18.231Z,11.70
2023-01-17T02:01:51.759Z,10.90
2023-01-17T02:04:24.734Z,12.40
2023-01-17T02:07:02.291Z,11.40
2023-01-17T02:09:33.761Z,12.10
2023-01-17T02:12:06.522Z,12.00
2023-01-17T02:14:38.225Z,11.60
2023-01-17T02:17:21.373Z,11.90
2023-01-17T02:20:14.001Z,11.80
2023-01-17T02:23:22.053Z,12.80
2023-01-17T02:26:29.367Z,11.30
2023-01-17T02:29:26.323Z,11.60
2023-01-17T02:32:03.600Z,11.20
2023-01-17T02:34:42.786Z,11.70
2023-01-17T02:37:20.177Z,11.10
2023-01-17T02:39:57.762Z,11.00
2023-01-17T02:42:33.452Z,12.20
2023-01-17T02:45:05.980Z,11.70
2023-01-17T02:47:37.842Z,11.60
2023-01-17T02:50:14.245Z,11.40
2023-01-17T02:52:57.312Z,12.30
2023-01-17T02:55:42.358Z,10.90
2023-01-17T02:58:34.977Z,10.90
2023-01-17T03:01:19.219Z,11.40
2023-01-17T03:03:56.877Z,10.90
2023-01-17T03:06:32.701Z,11.20
2023-01-17T03:09:05.615Z,11.00
2023-01-17T03:11:38.181Z,12.00
2023-01-17T03:14:09.959Z,10.80
2023-01-17T03:16:41.786Z,11.00
2023-01-17T03:19:14.969Z,10.60
2023-01-17T03:21:46.810Z,11.10
2023-01-17T03:24:18.132Z,11.30
2023-01-17T03:26:49.839Z,12.00
2023-01-17T03:29:22.595Z,12.00
2023-01-17T03:31:54.152Z,12.30
2023-01-17T03:34:26.058Z,11.20
2023-01-17T03:36:57.720Z,10.70
2023-01-17T03:39:29.509Z,11.20
2023-01-17T03:42:01.192Z,10.60
2023-01-17T03:44:32.546Z,11.30
2023-01-17T03:47:04.388Z,10.60
2023-01-17T03:49:36.010Z,11.50
2023-01-17T03:52:08.151Z,10.30
2023-01-17T03:54:39.576Z,10.70
2023-01-17T03:57:10.989Z,10.50
2023-01-17T03:59:42.898Z,10.60
2023-01-17T04:02:14.551Z,10.70
2023-01-17T04:04:46.490Z,10.30
2023-01-17T04:07:18.136Z,10.50
2023-01-17T04:09:50.194Z,9.80
2023-01-17T04:12:21.845Z,9.40
2023-01-17T04:14:53.632Z,8.70
2023-01-17T04:17:26.462Z,9.40
2023-01-17T04:19:58.717Z,9.20
2023-01-17T04:22:31.812Z,9.30
2023-01-17T04:25:03.544Z,9.50
2023-01-17T04:27:34.913Z,9.30
2023-01-17T04:30:07.299Z,9.20
2023-01-17T04:32:48.825Z,8.50
2023-01-17T04:35:33.409Z,8.10
2023-01-17T04:38:05.764Z,8.30
2023-01-17T04:40:37.454Z,7.60
2023-01-17T04:43:08.836Z,8.10
2023-01-17T04:45:40.221Z,7.90
2023-01-17T04:48:13.096Z,8.20
2023-01-17T04:50:44.737Z,8.80
2023-01-17T04:53:16.089Z,7.50
2023-01-17T04:55:49.834Z,8.20
2023-01-17T04:58:21.403Z,8.50
2023-01-17T05:00:53.031Z,7.80
2023-01-17T05:03:25.957Z,8.20
2023-01-17T05:05:57.621Z,8.30
2023-01-17T05:08:29.019Z,8.10
2023-01-17T05:11:00.724Z,7.80
2023-01-17T05:13:32.366Z,8.30
2023-01-17T05:16:04.790Z,8.10
2023-01-17T05:18:36.182Z,8.30
2023-01-17T05:21:08.164Z,7.50
2023-01-17T05:23:40.822Z,8.20
2023-01-17T05:26:12.420Z,8.50
2023-01-17T05:28:43.819Z,9.10
2023-01-17T05:31:15.117Z,10.40
2023-01-17T05:33:46.540Z,8.80
2023-01-17T05:36:19.222Z,9.90
2023-01-17T05:38:52.515Z,9.50
2023-01-17T05:41:24.275Z,9.00
2023-01-17T05:43:55.876Z,9.30
2023-01-17T05:46:27.398Z,9.60
2023-01-17T05:48:59.350Z,9.70
2023-01-17T05:51:31.325Z,9.40
2023-01-17T05:54:02.847Z,9.50
2023-01-17T05:56:34.924Z,9.30
2023-01-17T05:59:06.440Z,10.00
2023-01-17T06:01:38.316Z,9.50
2023-01-17T06:04:10.187Z,9.70
2023-01-17T06:06:41.964Z,9.50
2023-01-17T06:09:14.186Z,9.20
2023-01-17T06:11:45.611Z,9.80
2023-01-17T06:14:17.191Z,10.50
2023-01-17T06:16:49.179Z,9.60
2023-01-17T06:19:20.765Z,11.50
2023-01-17T06:21:52.899Z,9.80
2023-01-17T06:24:24.212Z,10.60
2023-01-17T06:26:55.806Z,11.60
2023-01-17T06:29:27.639Z,10.00
2023-01-17T06:32:01.509Z,9.30
2023-01-17T06:34:33.375Z,10.80
2023-01-17T06:37:05.446Z,11.10
2023-01-17T06:39:36.957Z,11.50
2023-01-17T06:42:08.836Z,10.10
2023-01-17T06:44:40.398Z,13.60
2023-01-17T06:47:12.110Z,11.60
2023-01-17T06:49:44.064Z,11.70
2023-01-17T06:52:15.507Z,10.90
2023-01-17T06:54:47.009Z,11.10
2023-01-17T06:57:18.571Z,11.00
2023-01-17T06:59:50.002Z,11.40
2023-01-17T07:02:21.603Z,9.90
2023-01-17T07:04:53.338Z,10.90
2023-01-17T07:07:25.126Z,10.20
2023-01-17T07:09:56.824Z,10.10
2023-01-17T07:12:28.255Z,10.90
2023-01-17T07:14:59.637Z,9.80
2023-01-17T07:17:32.167Z,9.20
2023-01-17T07:20:04.835Z,9.60
2023-01-17T07:22:37.970Z,9.60
2023-01-17T07:25:11.938Z,9.40
2023-01-17T07:27:43.703Z,9.80
2023-01-17T07:30:16.448Z,8.40
2023-01-17T07:32:51.755Z,9.00
2023-01-17T07:35:26.963Z,8.90
2023-01-17T07:37:58.386Z,10.40
2023-01-17T07:40:29.931Z,9.10
2023-01-17T07:43:12.588Z,8.50
2023-01-17T07:45:46.489Z,9.10
2023-01-17T07:48:18.495Z,9.90
2023-01-17T07:50:55.187Z,9.50
2023-01-17T07:53:29.277Z,9.50
2023-01-17T07:56:04.570Z,8.60
2023-01-17T07:58:36.749Z,8.90
2023-01-17T08:01:11.171Z,9.20
2023-01-17T08:03:43.664Z,9.90
2023-01-17T08:06:22.380Z,8.60
2023-01-17T08:08:55.353Z,9.20
2023-01-17T08:11:27.212Z,8.90
2023-01-17T08:13:59.782Z,8.70
2023-01-17T08:16:31.732Z,7.90
2023-01-17T08:19:03.518Z,7.60
2023-01-17T08:21:35.610Z,8.50
2023-01-17T08:24:07.768Z,8.40
2023-01-17T08:26:39.990Z,8.70
2023-01-17T08:29:12.646Z,8.90
2023-01-17T08:31:44.333Z,8.00
2023-01-17T08:34:15.783Z,8.50
2023-01-17T08:36:48.246Z,8.30
2023-01-17T08:39:20.320Z,9.00
2023-01-17T08:41:52.390Z,8.40
2023-01-17T08:44:24.153Z,8.40
2023-01-17T08:46:56.094Z,8.80
2023-01-17T08:49:28.442Z,8.20
2023-01-17T08:52:00.035Z,7.70
2023-01-17T08:54:32.022Z,8.20
2023-01-17T08:57:05.334Z,8.30
2023-01-17T08:59:36.878Z,8.80
2023-01-17T09:02:15.241Z,7.80
2023-01-17T09:04:49.479Z,7.60
2023-01-17T09:07:22.431Z,6.80
2023-01-17T09:09:54.003Z,8.00
2023-01-17T09:12:25.457Z,7.40
2023-01-17T09:14:56.901Z,7.20
2023-01-17T09:17:28.830Z,7.90
2023-01-17T09:20:01.581Z,7.70
2023-01-17T09:22:33.964Z,7.90
2023-01-17T09:25:05.925Z,7.50
2023-01-17T09:27:37.552Z,6.90
2023-01-17T09:30:12.301Z,7.30
2023-01-17T09:35:13.831Z,7.90
2023-01-17T09:37:45.520Z,7.90
2023-01-17T09:40:19.840Z,8.50
2023-01-17T09:42:54.867Z,7.80
2023-01-17T09:45:30.043Z,8.50
2023-01-17T09:48:08.168Z,8.00
2023-01-17T09:50:45.475Z,8.10
2023-01-17T09:53:21.138Z,8.00
2023-01-17T09:55:59.047Z,7.20
2023-01-17T09:58:43.866Z,8.30
2023-01-17T10:01:22.857Z,8.40
2023-01-17T10:04:19.759Z,7.40
2023-01-17T10:07:07.126Z,9.30
2023-01-17T10:09:56.520Z,7.90
2023-01-17T10:12:34.764Z,8.30
2023-01-17T10:15:39.346Z,8.00
2023-01-17T10:18:30.406Z,8.20
2023-01-17T10:21:11.517Z,8.30
2023-01-17T10:24:16.623Z,8.70
2023-01-17T10:26:51.442Z,7.90
2023-01-17T10:31:57.039Z,8.50
2023-01-17T10:37:07.665Z,7.60
2023-01-17T10:39:39.497Z,8.10
2023-01-17T10:42:21.673Z,8.90
2023-01-17T10:45:00.852Z,7.80
2023-01-17T10:47:36.668Z,9.20
2023-01-17T10:50:13.395Z,8.30
2023-01-17T10:52:53.584Z,9.00
2023-01-17T10:55:40.841Z,9.00
2023-01-17T10:58:14.356Z,8.20
2023-01-17T11:00:51.647Z,9.90
2023-01-17T11:03:24.669Z,8.70
2023-01-17T11:06:20.064Z,9.10
2023-01-17T11:08:56.612Z,8.60
2023-01-17T11:11:32.139Z,7.80
2023-01-17T11:14:06.594Z,8.40
2023-01-17T11:16:38.511Z,7.20
2023-01-17T11:19:16.652Z,8.40
2023-01-17T11:21:58.099Z,8.40
2023-01-17T11:24:36.270Z,8.70
2023-01-17T11:27:24.169Z,9.30
2023-01-17T11:30:06.888Z,8.70
2023-01-17T11:32:39.559Z,8.00
2023-01-17T11:35:22.025Z,8.10
2023-01-17T11:38:06.221Z,7.40
2023-01-17T11:40:41.917Z,7.90
2023-01-17T11:43:25.764Z,8.50
2023-01-17T11:46:19.485Z,9.70
2023-01-17T11:48:57.255Z,9.20
2023-01-17T11:51:34.528Z,8.00
2023-01-17T11:54:18.609Z,7.50
2023-01-17T11:56:50.785Z,8.50
2023-01-17T11:59:31.705Z,8.90
2023-01-17T12:02:22.708Z,7.90
2023-01-17T12:05:02.843Z,7.90
2023-01-17T12:07:46.187Z,7.50
2023-01-17T12:10:24.854Z,8.40
2023-01-17T12:13:22.423Z,8.10
2023-01-17T12:16:17.057Z,7.70
2023-01-17T12:19:00.126Z,7.80
2023-01-17T12:21:40.828Z,7.80
2023-01-17T12:24:37.477Z,8.70
2023-01-17T12:27:16.785Z,9.30
2023-01-17T12:30:00.248Z,7.40
2023-01-17T12:33:04.174Z,7.90
2023-01-17T12:35:40.095Z,7.90
2023-01-17T12:38:27.337Z,7.70
2023-01-17T12:41:05.692Z,7.70
2023-01-17T12:43:40.963Z,9.00
2023-01-17T12:46:21.205Z,8.00
2023-01-17T12:48:57.699Z,6.80
2023-01-17T12:51:34.097Z,6.70
2023-01-17T12:54:14.088Z,6.90
2023-01-17T12:56:50.440Z,6.50
2023-01-17T12:59:30.479Z,6.50
2023-01-17T13:02:12.465Z,6.40
2023-01-17T13:04:58.349Z,6.50
2023-01-17T13:07:39.722Z,7.00
2023-01-17T13:10:23.846Z,6.70
2023-01-17T13:13:00.664Z,6.60
2023-01-17T13:15:39.216Z,6.70
2023-01-17T13:18:16.034Z,6.80
2023-01-17T13:21:09.536Z,7.10
2023-01-17T13:23:56.095Z,7.40
2023-01-17T13:26:39.585Z,6.80
2023-01-17T13:29:25.134Z,7.00
2023-01-17T13:32:06.739Z,7.00
2023-01-17T13:35:09.441Z,7.40
2023-01-17T13:38:01.261Z,7.40
2023-01-17T13:40:43.880Z,7.70
2023-01-17T13:43:25.916Z,7.60
2023-01-17T13:46:05.942Z,7.40
2023-01-17T13:48:46.525Z,7.60
2023-01-17T13:51:20.131Z,8.10
2023-01-17T13:53:57.302Z,9.20
2023-01-17T13:56:36.857Z,8.90
2023-01-17T13:59:34.676Z,8.90
2023-01-17T14:02:28.057Z,8.30
2023-01-17T14:05:15.647Z,9.20
2023-01-17T14:07:56.226Z,10.60
2023-01-17T14:10:39.013Z,8.70
2023-01-17T14:13:36.975Z,8.80
2023-01-17T14:16:28.721Z,7.90
2023-01-17T14:19:04.522Z,7.90
2023-01-17T14:21:36.674Z,8.20
2023-01-17T14:24:20.072Z,8.60
2023-01-17T14:26:57.204Z,10.10
2023-01-17T14:29:56.145Z,9.50
2023-01-17T14:32:34.459Z,8.70
2023-01-17T14:35:09.472Z,9.00
2023-01-17T14:37:48.368Z,8.40
2023-01-17T14:40:27.688Z,9.50
2023-01-17T14:43:04.551Z,9.10
2023-01-17T14:45:42.325Z,10.10
2023-01-17T14:48:20.339Z,9.80
2023-01-17T14:50:54.845Z,8.10
2023-01-17T14:53:28.409Z,8.90
2023-01-17T14:56:21.082Z,8.80
2023-01-17T14:59:08.398Z,10.00
2023-01-17T15:01:41.280Z,11.50
2023-01-17T15:04:26.546Z,15.10
2023-01-17T15:07:00.315Z,22.50
2023-01-17T15:09:34.422Z,29.50
2023-01-17T15:12:09.983Z,34.60
2023-01-17T15:14:44.853Z,26.10
2023-01-17T15:17:22.142Z,15.80
2023-01-17T15:19:58.473Z,12.60
2023-01-17T15:22:31.284Z,10.20
2023-01-17T15:25:04.322Z,9.40
2023-01-17T15:27:36.330Z,8.50
2023-01-17T15:30:18.530Z,8.40
2023-01-17T15:32:53.282Z,8.70
2023-01-17T15:37:58.643Z,11.50
2023-01-17T15:40:33.505Z,12.40
2023-01-17T15:43:06.982Z,13.00
2023-01-17T15:45:41.902Z,16.90
2023-01-17T15:48:39.093Z,15.80
2023-01-17T15:51:16.019Z,18.10
2023-01-17T15:53:49.701Z,15.50
2023-01-17T15:56:31.479Z,18.80
2023-01-17T15:59:35.273Z,20.40
2023-01-17T16:02:24.728Z,19.90
2023-01-17T16:04:56.698Z,21.90
2023-01-17T16:07:35.520Z,22.90
2023-01-17T16:10:16.725Z,26.70
2023-01-17T16:12:50.032Z,25.80
2023-01-17T16:15:23.961Z,22.70
2023-01-17T16:17:58.693Z,19.00
2023-01-17T16:23:07.042Z,17.20
2023-01-17T16:25:40.536Z,16.80
2023-01-17T16:28:12.490Z,16.20
2023-01-17T16:30:45.337Z,14.50
2023-01-17T16:33:17.966Z,11.90
2023-01-17T16:35:51.598Z,11.00
2023-01-17T16:38:26.305Z,10.20
2023-01-17T16:40:58.993Z,10.80
2023-01-17T16:43:31.398Z,10.50
2023-01-17T16:46:03.653Z,10.80
2023-01-17T16:48:44.637Z,11.40
2023-01-17T16:51:21.270Z,13.10
2023-01-17T16:53:52.654Z,12.10
2023-01-17T16:56:24.212Z,12.70
2023-01-17T16:58:56.485Z,13.50
2023-01-17T17:01:28.087Z,13.20
2023-01-17T17:03:59.892Z,13.80
2023-01-17T17:06:33.239Z,13.20
2023-01-17T17:09:05.315Z,13.10
2023-01-17T17:11:36.874Z,13.50
2023-01-17T17:14:09.654Z,13.20
2023-01-17T17:16:41.757Z,13.90
2023-01-17T17:19:16.811Z,14.20
2023-01-17T17:21:49.723Z,14.60
2023-01-17T17:24:21.195Z,14.20
2023-01-17T17:26:52.949Z,14.40
2023-01-17T17:29:25.581Z,15.60
2023-01-17T17:31:57.677Z,16.10
2023-01-17T17:34:31.182Z,16.20
2023-01-17T17:37:03.879Z,15.80
2023-01-17T17:39:35.930Z,15.90
2023-01-17T17:42:08.183Z,16.20
2023-01-17T17:44:40.415Z,17.20
2023-01-17T17:47:13.236Z,17.50
2023-01-17T17:49:46.411Z,16.90
2023-01-17T17:52:17.866Z,16.90
2023-01-17T17:54:51.121Z,16.20
2023-01-17T17:57:23.373Z,16.60
2023-01-17T17:59:57.275Z,18.80
2023-01-17T18:02:29.618Z,19.10
2023-01-17T18:05:03.058Z,17.90
2023-01-17T18:07:37.651Z,17.50
2023-01-17T18:10:12.506Z,16.20
2023-01-17T18:15:21.130Z,16.50
2023-01-17T18:17:56.853Z,16.80
2023-01-17T18:20:30.955Z,17.50
2023-01-17T18:23:02.979Z,17.10
2023-01-17T18:25:44.307Z,18.40
2023-01-17T18:28:17.660Z,22.70
2023-01-17T18:30:51.108Z,21.90
2023-01-17T18:33:23.997Z,22.40
2023-01-17T18:36:02.138Z,27.10
2023-01-17T18:38:40.368Z,27.40
2023-01-17T18:41:17.045Z,26.90
2023-01-17T18:43:50.835Z,26.80
2023-01-17T18:46:26.162Z,23.10
2023-01-17T18:49:01.963Z,22.80
2023-01-17T18:51:41.108Z,23.90
2023-01-17T18:54:20.825Z,21.90
2023-01-17T18:56:57.765Z,21.70
2023-01-17T18:59:36.864Z,21.00
2023-01-17T19:02:12.599Z,20.20
2023-01-17T19:04:49.010Z,20.90
2023-01-17T19:07:23.193Z,21.20
2023-01-17T19:09:57.696Z,20.90
2023-01-17T19:12:31.461Z,21.50
2023-01-17T19:15:07.641Z,22.70
2023-01-17T19:17:40.957Z,21.40
2023-01-17T19:20:18.658Z,20.40
2023-01-17T19:22:55.939Z,20.70
2023-01-17T19:25:32.457Z,21.40
2023-01-17T19:28:07.667Z,22.20
2023-01-17T19:30:43.054Z,23.10
2023-01-17T19:33:17.309Z,24.40
2023-01-17T19:35:55.723Z,27.00
2023-01-17T19:38:29.274Z,27.20
2023-01-17T19:41:14.838Z,25.60
2023-01-17T19:43:48.921Z,23.20
2023-01-17T19:46:24.235Z,22.50
2023-01-17T19:48:57.823Z,20.50
2023-01-17T19:51:32.180Z,19.60
2023-01-17T19:54:16.078Z,20.50
2023-01-17T19:56:57.076Z,17.90
2023-01-17T19:59:30.355Z,17.30
2023-01-17T20:02:12.289Z,18.00
2023-01-17T20:04:47.506Z,19.50
2023-01-17T20:07:23.442Z,21.80
2023-01-17T20:09:58.401Z,20.90
2023-01-17T20:12:36.149Z,19.80
2023-01-17T20:15:11.156Z,20.20
2023-01-17T20:20:16.696Z,21.30
2023-01-17T20:22:50.784Z,20.10
2023-01-17T20:25:23.548Z,20.90
2023-01-17T20:28:00.665Z,21.00
2023-01-17T20:30:35.025Z,21.00
2023-01-17T20:33:15.598Z,20.50
2023-01-17T20:35:49.030Z,21.30
2023-01-17T20:38:27.908Z,21.70
2023-01-17T20:41:13.513Z,20.70
2023-01-17T20:43:47.849Z,20.50
2023-01-17T20:46:23.455Z,21.50
2023-01-17T20:48:57.143Z,23.10
2023-01-17T20:51:31.275Z,26.30
2023-01-17T20:54:04.622Z,27.80
2023-01-17T20:56:38.091Z,33.20
2023-01-17T20:59:13.906Z,32.60
2023-01-17T21:01:46.449Z,28.80
2023-01-17T21:04:26.045Z,26.20
2023-01-17T21:06:58.918Z,28.70
2023-01-17T21:09:31.024Z,29.00
2023-01-17T21:12:02.617Z,28.20
2023-01-17T21:14:35.163Z,29.50
2023-01-17T21:17:09.927Z,28.70
2023-01-17T21:22:17.094Z,29.20
2023-01-17T21:24:49.940Z,30.60
2023-01-17T21:27:22.251Z,29.40
2023-01-17T21:29:56.410Z,27.60
2023-01-17T21:32:30.762Z,27.10
2023-01-17T21:35:02.528Z,28.20
2023-01-17T21:37:34.541Z,25.80
2023-01-17T21:40:07.369Z,27.90
2023-01-17T21:42:39.448Z,28.30
2023-01-17T21:45:13.477Z,29.60
2023-01-17T21:47:48.266Z,29.30
2023-01-17T21:53:08.790Z,26.90
2023-01-17T21:55:57.634Z,29.80
2023-01-17T21:58:45.099Z,29.40
2023-01-17T22:01:21.823Z,28.40
2023-01-17T22:03:54.984Z,30.30
2023-01-17T22:06:29.719Z,32.90
2023-01-17T22:11:31.657Z,27.40
2023-01-17T22:14:05.377Z,25.30
2023-01-17T22:16:37.051Z,26.10
2023-01-17T22:19:08.466Z,28.80
2023-01-17T22:21:40.099Z,29.20
2023-01-17T22:24:13.939Z,27.40
2023-01-17T22:26:45.377Z,27.10
2023-01-17T22:29:19.131Z,28.80
2023-01-17T22:31:50.855Z,28.90
2023-01-17T22:34:23.057Z,28.60
2023-01-17T22:36:54.494Z,27.70
2023-01-17T22:39:26.514Z,27.20
2023-01-17T22:41:58.217Z,27.10
2023-01-17T22:44:30.006Z,25.80
2023-01-17T22:47:01.581Z,22.60
2023-01-17T22:49:33.282Z,23.50
2023-01-17T22:52:04.727Z,25.10
2023-01-17T22:54:36.084Z,26.30
2023-01-17T22:57:07.794Z,29.00
2023-01-17T22:59:39.377Z,28.50
2023-01-17T23:02:12.419Z,27.10
2023-01-17T23:04:44.001Z,28.80
2023-01-17T23:07:15.541Z,27.70
2023-01-17T23:09:47.696Z,27.30
2023-01-17T23:12:19.120Z,25.10
2023-01-17T23:15:07.794Z,23.20
2023-01-17T23:17:56.662Z,23.90
2023-01-17T23:20:28.385Z,24.10
2023-01-17T23:23:00.217Z,23.10
2023-01-17T23:25:32.142Z,21.80
2023-01-17T23:28:21.208Z,22.70
2023-01-17T23:30:52.654Z,24.20
2023-01-17T23:33:24.382Z,24.10
2023-01-17T23:35:56.806Z,22.10
2023-01-17T23:38:29.855Z,22.10
2023-01-17T23:41:23.863Z,22.30
2023-01-17T23:43:56.868Z,21.30
2023-01-17T23:46:30.419Z,22.60
2023-01-17T23:49:02.494Z,21.00
2023-01-17T23:51:34.525Z,21.80
2023-01-17T23:54:06.688Z,22.50
2023-01-17T23:56:38.398Z,21.40
2023-01-17T23:59:09.811Z,21.70
